Time;durP1;ratioP1;P1;durP2;ratioP2;P2;SDS_P1;SDS_P2;PMS_P1;PMS_P2;Temp;Humidity;BMP_temperature;BMP_pressure;BME280_temperature;BME280_humidity;BME280_pressure;Samples;Min_cycle;Max_cycle;Signal;HPM_P1;HPM_P2
2021/12/15 00:01:57;;;;;;;22.35;14.40;;;5.60;99.90;;;;;;5028518;28;20202;-65
2021/12/15 00:04:23;;;;;;;23.80;16.00;;;5.60;99.90;;;;;;5028771;28;20228;-65
2021/12/15 00:06:50;;;;;;;25.00;14.75;;;5.60;99.90;;;;;;5029079;28;20552;-65
2021/12/15 00:09:17;;;;;;;19.75;14.00;;;5.60;99.90;;;;;;5028716;28;20233;-66
2021/12/15 00:11:45;;;;;;;25.08;15.13;;;5.60;99.90;;;;;;5028592;28;20209;-64
2021/12/15 00:14:16;;;;;;;19.08;13.65;;;5.60;99.90;;;;;;5080417;22;20243;-93
2021/12/15 00:16:45;;;;;;;25.20;16.23;;;5.60;99.90;;;;;;5069168;22;20229;-67
2021/12/15 00:19:13;;;;;;;26.23;16.30;;;5.60;99.90;;;;;;5050500;28;20208;-68
2021/12/15 00:21:40;;;;;;;27.33;16.85;;;5.60;99.90;;;;;;5049599;28;20228;-69
2021/12/15 00:24:08;;;;;;;24.70;16.35;;;5.60;99.90;;;;;;5049959;28;20221;-69
2021/12/15 00:26:36;;;;;;;29.13;16.48;;;5.60;99.90;;;;;;5050709;28;20204;-68
2021/12/15 00:29:05;;;;;;;22.58;14.73;;;5.70;99.90;;;;;;5050056;28;20224;-68
2021/12/15 00:31:32;;;;;;;25.52;16.27;;;5.70;99.90;;;;;;5049688;28;20719;-68
2021/12/15 00:34:01;;;;;;;22.65;15.43;;;5.60;99.90;;;;;;5049817;28;20217;-68
2021/12/15 00:36:28;;;;;;;25.08;15.50;;;5.60;99.90;;;;;;5033167;28;20209;-68
2021/12/15 00:38:55;;;;;;;25.73;16.80;;;5.70;99.90;;;;;;5030100;28;20202;-68
2021/12/15 00:41:21;;;;;;;25.38;15.70;;;5.70;99.90;;;;;;5023685;28;20190;-68
2021/12/15 00:43:48;;;;;;;24.83;16.10;;;5.70;99.90;;;;;;5029759;28;20214;-68
2021/12/15 00:46:15;;;;;;;20.80;14.23;;;5.60;99.90;;;;;;5028561;28;20217;-68
2021/12/15 00:48:42;;;;;;;24.92;17.08;;;5.60;99.90;;;;;;5030322;28;20244;-68
2021/12/15 00:51:10;;;;;;;24.80;16.17;;;5.60;99.90;;;;;;5028936;28;20201;-68
2021/12/15 00:53:37;;;;;;;26.48;16.50;;;5.60;99.90;;;;;;5028470;28;20226;-68
2021/12/15 00:56:04;;;;;;;29.70;16.70;;;5.60;99.90;;;;;;5028815;28;20198;-68
2021/12/15 00:58:31;;;;;;;27.48;17.77;;;5.60;99.90;;;;;;5030063;28;20194;-68
2021/12/15 01:01:01;;;;;;;22.88;15.88;;;5.60;99.90;;;;;;5028711;28;20209;-68
2021/12/15 01:03:29;;;;;;;22.60;15.95;;;5.60;99.90;;;;;;5030559;28;20312;-68
2021/12/15 01:06:03;;;;;;;28.27;17.90;;;5.60;99.90;;;;;;5030034;28;20669;-68
2021/12/15 01:08:35;;;;;;;30.70;18.85;;;5.60;99.90;;;;;;5030589;28;20228;-68
2021/12/15 01:11:11;;;;;;;32.05;18.15;;;5.60;99.90;;;;;;5028851;28;20208;-68
2021/12/15 01:21:56;;;;;;;28.10;17.80;;;5.60;99.90;;;;;;5029691;28;20228;-68
2021/12/15 01:24:25;;;;;;;28.50;17.75;;;5.60;99.90;;;;;;5029657;28;20213;-68
2021/12/15 01:26:52;;;;;;;32.40;18.30;;;5.60;99.90;;;;;;5029844;28;20635;-68
2021/12/15 01:29:19;;;;;;;26.70;16.58;;;5.60;99.90;;;;;;5029742;28;20221;-68
2021/12/15 01:31:47;;;;;;;24.02;15.60;;;5.60;99.90;;;;;;5028935;28;20233;-68
2021/12/15 01:34:14;;;;;;;28.13;17.17;;;5.60;99.90;;;;;;5022166;28;20320;-68
2021/12/15 01:36:41;;;;;;;27.52;16.98;;;5.60;99.90;;;;;;5030066;28;20208;-69
2021/12/15 01:39:08;;;;;;;26.67;17.15;;;5.60;99.90;;;;;;5029496;28;20276;-68
2021/12/15 01:41:36;;;;;;;30.40;17.15;;;5.60;99.90;;;;;;5029749;28;20212;-68
2021/12/15 01:46:56;;;;;;;27.42;16.83;;;5.60;99.90;;;;;;5030184;28;20708;-68
2021/12/15 01:49:31;;;;;;;28.02;16.73;;;5.60;99.90;;;;;;5030878;28;20605;-68
2021/12/15 01:52:02;;;;;;;28.80;17.20;;;5.60;99.90;;;;;;5030291;28;20193;-68
2021/12/15 01:54:30;;;;;;;29.27;18.75;;;5.60;99.90;;;;;;5030894;28;20205;-67
2021/12/15 01:56:59;;;;;;;30.48;18.38;;;5.60;99.90;;;;;;5030744;28;20582;-67
2021/12/15 01:59:29;;;;;;;18.77;11.40;;;5.60;99.90;;;;;;5030620;28;20201;-68
2021/12/15 02:01:55;;;;;;;17.02;11.00;;;5.60;99.90;;;;;;5029785;28;20206;-67
2021/12/15 02:04:22;;;;;;;28.95;16.63;;;5.60;99.90;;;;;;5030280;28;20205;-67
2021/12/15 02:06:49;;;;;;;23.90;15.05;;;5.50;99.90;;;;;;5030598;28;20205;-67
2021/12/15 02:09:31;;;;;;;27.70;18.30;;;5.60;99.90;;;;;;5030052;28;20226;-67
2021/12/15 02:12:00;;;;;;;27.77;17.85;;;5.60;99.90;;;;;;5029676;28;20269;-67
2021/12/15 02:14:30;;;;;;;27.55;17.25;;;5.60;99.90;;;;;;5030213;28;20205;-67
2021/12/15 02:16:57;;;;;;;32.20;17.90;;;5.60;99.90;;;;;;5030196;28;20209;-67
2021/12/15 02:19:24;;;;;;;26.52;17.45;;;5.60;99.90;;;;;;5030454;28;20256;-67
2021/12/15 02:21:52;;;;;;;30.42;17.70;;;5.60;99.90;;;;;;5029579;28;20198;-67
2021/12/15 02:24:21;;;;;;;26.45;16.20;;;5.60;99.90;;;;;;5030268;28;20201;-66
2021/12/15 02:26:51;;;;;;;24.90;14.95;;;5.60;99.90;;;;;;5030217;28;20236;-68
2021/12/15 02:29:20;;;;;;;29.60;18.85;;;5.60;99.90;;;;;;5030420;28;20812;-67
2021/12/15 02:31:59;;;;;;;26.45;17.08;;;5.60;99.90;;;;;;5029773;28;20235;-67
2021/12/15 02:34:56;;;;;;;23.23;17.05;;;5.60;99.90;;;;;;5030211;28;20201;-67
2021/12/15 02:37:23;;;;;;;20.60;12.63;;;5.60;99.90;;;;;;5030530;28;20318;-67
2021/12/15 02:39:53;;;;;;;21.23;13.38;;;5.60;99.90;;;;;;5030170;28;20209;-67
2021/12/15 02:42:22;;;;;;;20.55;14.25;;;5.50;99.90;;;;;;5029631;28;20240;-67
2021/12/15 02:44:49;;;;;;;18.15;12.38;;;5.60;99.90;;;;;;5030068;28;20695;-68
2021/12/15 02:47:19;;;;;;;22.92;14.85;;;5.60;99.90;;;;;;5033721;28;20209;-68
2021/12/15 02:49:47;;;;;;;19.50;13.70;;;5.60;99.90;;;;;;5033936;28;20603;-68
2021/12/15 02:52:14;;;;;;;23.52;13.55;;;5.60;99.90;;;;;;5032861;28;20625;-68
2021/12/15 02:54:42;;;;;;;19.05;12.55;;;5.50;99.90;;;;;;5033765;28;20575;-68
2021/12/15 02:57:12;;;;;;;20.67;13.10;;;5.60;99.90;;;;;;5033302;28;20197;-67
2021/12/15 02:59:50;;;;;;;15.50;11.00;;;5.60;99.90;;;;;;5033678;28;20198;-67
2021/12/15 03:02:39;;;;;;;19.00;11.35;;;5.60;99.90;;;;;;5032811;28;20696;-68
2021/12/15 03:05:12;;;;;;;16.00;9.55;;;5.60;99.90;;;;;;5033259;28;20227;-68
2021/12/15 03:07:45;;;;;;;15.52;10.18;;;5.60;99.90;;;;;;5033574;28;20206;-68
2021/12/15 03:15:38;;;;;;;16.55;10.32;;;5.60;99.90;;;;;;5033240;28;20197;-68
2021/12/15 03:18:11;;;;;;;19.45;11.13;;;5.60;99.90;;;;;;5033116;28;20213;-68
2021/12/15 03:20:42;;;;;;;14.30;10.15;;;5.60;99.90;;;;;;5033172;28;20200;-67
2021/12/15 03:23:11;;;;;;;17.48;10.25;;;5.60;99.90;;;;;;5032579;28;20221;-67
2021/12/15 03:25:40;;;;;;;11.63;8.68;;;5.60;99.90;;;;;;5033242;28;20208;-68
2021/12/15 03:33:57;;;;;;;13.90;10.43;;;5.50;99.90;;;;;;5032869;28;20221;-68
2021/12/15 03:36:37;;;;;;;19.38;11.25;;;5.50;99.90;;;;;;5033091;28;20205;-67
2021/12/15 03:39:06;;;;;;;17.30;13.30;;;5.50;99.90;;;;;;5032810;28;20212;-67
2021/12/15 03:41:34;;;;;;;21.75;13.40;;;5.50;99.90;;;;;;5032602;28;20618;-67
2021/12/15 03:44:02;;;;;;;20.63;12.73;;;5.50;99.90;;;;;;5032778;28;20739;-67
2021/12/15 03:46:29;;;;;;;20.58;13.55;;;5.50;99.90;;;;;;5032897;28;20700;-67
2021/12/15 03:48:57;;;;;;;28.70;16.25;;;5.60;99.90;;;;;;5032667;28;20206;-67
2021/12/15 03:51:24;;;;;;;21.00;14.27;;;5.60;99.90;;;;;;5032099;28;20224;-68
2021/12/15 03:53:51;;;;;;;18.50;12.27;;;5.60;99.90;;;;;;5032565;28;20225;-67
2021/12/15 03:56:18;;;;;;;18.85;12.35;;;5.60;99.90;;;;;;5032357;28;20204;-67
2021/12/15 03:58:47;;;;;;;22.00;13.35;;;5.60;99.90;;;;;;5032397;28;20202;-67
2021/12/15 04:01:17;;;;;;;18.25;13.07;;;5.50;99.90;;;;;;5031950;28;20209;-69
2021/12/15 04:03:47;;;;;;;12.90;9.38;;;5.50;99.90;;;;;;5032164;28;20284;-67
2021/12/15 04:06:17;;;;;;;13.68;9.82;;;5.50;99.90;;;;;;5032402;28;20225;-67
2021/12/15 04:08:44;;;;;;;9.88;8.30;;;5.50;99.90;;;;;;5032342;28;20206;-67
2021/12/15 04:11:14;;;;;;;7.38;5.97;;;5.50;99.90;;;;;;5031856;28;20232;-68
2021/12/15 04:13:42;;;;;;;6.68;5.70;;;5.40;99.90;;;;;;5032507;28;20225;-67
2021/12/15 04:16:25;;;;;;;6.75;5.65;;;5.40;99.90;;;;;;5031885;28;20576;-67
2021/12/15 04:18:52;;;;;;;7.28;5.00;;;5.40;99.90;;;;;;5032403;28;20300;-68
2021/12/15 04:21:19;;;;;;;6.63;4.88;;;5.40;99.90;;;;;;5031397;28;20209;-68
2021/12/15 04:23:50;;;;;;;6.60;4.43;;;5.40;99.90;;;;;;5031988;28;20712;-68
2021/12/15 04:26:17;;;;;;;5.28;4.55;;;5.40;99.90;;;;;;5032009;28;20201;-67
2021/12/15 04:28:44;;;;;;;6.85;5.10;;;5.40;99.90;;;;;;5031923;28;20624;-67
2021/12/15 04:31:15;;;;;;;5.10;4.32;;;5.40;99.90;;;;;;5031347;28;20232;-69
2021/12/15 04:33:46;;;;;;;5.57;4.30;;;5.40;99.90;;;;;;5030589;28;20260;-69
2021/12/15 04:36:14;;;;;;;5.93;4.20;;;5.40;99.90;;;;;;5031216;28;20237;-69
2021/12/15 04:38:43;;;;;;;5.45;4.63;;;5.40;99.90;;;;;;5030928;28;20212;-68
2021/12/15 04:41:16;;;;;;;4.53;4.10;;;5.50;99.90;;;;;;5031361;28;20669;-68
2021/12/15 04:43:43;;;;;;;4.32;3.85;;;5.40;99.90;;;;;;5032318;28;20225;-67
2021/12/15 04:46:13;;;;;;;4.97;4.10;;;5.40;99.90;;;;;;5032434;28;20266;-68
2021/12/15 04:48:43;;;;;;;5.00;3.97;;;5.40;99.90;;;;;;5031917;28;20209;-68
2021/12/15 04:51:10;;;;;;;5.18;4.20;;;5.30;99.90;;;;;;5031301;28;20217;-68
2021/12/15 04:53:37;;;;;;;4.10;3.70;;;5.30;99.90;;;;;;5031472;28;20222;-67
2021/12/15 04:56:05;;;;;;;3.58;3.28;;;5.30;99.90;;;;;;5031557;28;20571;-68
2021/12/15 04:58:32;;;;;;;4.43;4.03;;;5.30;99.90;;;;;;5031447;28;20213;-68
2021/12/15 05:01:04;;;;;;;5.32;4.28;;;5.30;99.90;;;;;;5030896;28;20194;-68
2021/12/15 05:03:33;;;;;;;3.70;3.00;;;5.30;99.90;;;;;;5031295;28;20249;-68
2021/12/15 05:05:59;;;;;;;4.85;4.07;;;5.30;99.90;;;;;;5031574;28;20293;-68
2021/12/15 05:08:26;;;;;;;4.07;3.70;;;5.30;99.90;;;;;;5030896;28;20572;-68
2021/12/15 05:10:55;;;;;;;5.78;4.85;;;5.30;99.90;;;;;;5030693;28;20633;-69
2021/12/15 05:13:22;;;;;;;4.40;3.70;;;5.30;99.90;;;;;;5030904;28;20279;-68
2021/12/15 05:15:50;;;;;;;4.78;3.83;;;5.40;99.90;;;;;;5031034;28;20212;-67
2021/12/15 05:18:17;;;;;;;5.70;4.40;;;5.40;99.90;;;;;;5030944;28;20585;-67
2021/12/15 05:20:48;;;;;;;6.20;5.50;;;5.40;99.90;;;;;;5030784;28;20206;-67
2021/12/15 05:23:17;;;;;;;7.65;5.95;;;5.40;99.90;;;;;;5030476;28;20316;-67
2021/12/15 05:25:45;;;;;;;12.55;8.20;;;5.40;99.90;;;;;;5030962;28;20285;-68
2021/12/15 05:28:12;;;;;;;8.30;7.40;;;5.40;99.90;;;;;;5028897;28;20205;-67
2021/12/15 05:30:39;;;;;;;9.73;7.38;;;5.40;99.90;;;;;;5030589;28;20229;-67
2021/12/15 05:33:06;;;;;;;9.75;7.75;;;5.40;99.90;;;;;;5030270;28;20217;-68
2021/12/15 05:35:34;;;;;;;8.20;7.30;;;5.50;99.90;;;;;;5031107;28;20213;-67
2021/12/15 05:38:03;;;;;;;7.25;5.15;;;5.50;99.90;;;;;;5031380;28;20202;-67
2021/12/15 05:40:31;;;;;;;6.38;5.25;;;5.50;99.90;;;;;;5031487;28;20575;-67
2021/12/15 05:42:59;;;;;;;6.00;5.40;;;5.50;99.90;;;;;;5030922;28;20319;-67
2021/12/15 05:45:27;;;;;;;7.13;5.60;;;5.50;99.90;;;;;;5031467;28;20209;-67
2021/12/15 05:47:54;;;;;;;7.60;5.85;;;5.50;99.90;;;;;;5032773;28;20334;-68
2021/12/15 05:50:22;;;;;;;8.57;6.75;;;5.50;99.90;;;;;;5030856;28;20244;-67
2021/12/15 05:52:49;;;;;;;8.85;7.03;;;5.50;99.90;;;;;;5030303;28;20230;-68
2021/12/15 05:55:19;;;;;;;7.60;6.55;;;5.50;99.90;;;;;;5030664;28;20217;-68
2021/12/15 05:57:46;;;;;;;8.15;6.55;;;5.50;99.90;;;;;;5030634;28;20205;-68
2021/12/15 06:00:16;;;;;;;9.07;6.80;;;5.50;99.90;;;;;;5030733;28;20237;-69
2021/12/15 06:02:43;;;;;;;8.43;6.88;;;5.50;99.90;;;;;;5030532;28;20614;-68
2021/12/15 06:05:11;;;;;;;7.13;6.20;;;5.50;99.90;;;;;;5030524;28;20210;-68
2021/12/15 06:07:39;;;;;;;4.25;3.85;;;5.50;99.90;;;;;;5030559;28;20202;-68
2021/12/15 06:10:08;;;;;;;5.57;4.43;;;5.50;99.90;;;;;;5030148;28;20224;-68
2021/12/15 06:12:36;;;;;;;4.78;4.18;;;5.40;99.90;;;;;;5029843;28;20221;-68
2021/12/15 06:15:05;;;;;;;5.50;4.13;;;5.50;99.90;;;;;;5107379;22;20227;-92
2021/12/15 06:17:32;;;;;;;5.68;4.60;;;5.50;99.90;;;;;;5077144;28;20303;-92
2021/12/15 06:19:59;;;;;;;5.90;5.25;;;5.50;99.90;;;;;;5075340;22;20239;-71
2021/12/15 06:22:28;;;;;;;6.22;4.95;;;5.50;99.90;;;;;;5052681;28;20602;-71
2021/12/15 06:24:57;;;;;;;4.70;4.15;;;5.50;99.90;;;;;;5054157;28;20204;-71
2021/12/15 06:27:24;;;;;;;5.75;4.18;;;5.50;99.90;;;;;;5053806;28;20620;-71
2021/12/15 06:29:53;;;;;;;5.30;4.80;;;5.50;99.90;;;;;;5054072;28;20204;-71
2021/12/15 06:32:22;;;;;;;9.45;4.05;;;5.50;99.90;;;;;;5053116;28;20574;-70
2021/12/15 06:34:49;;;;;;;5.32;4.20;;;5.40;99.90;;;;;;5054143;28;20441;-70
2021/12/15 06:37:16;;;;;;;4.35;3.95;;;5.40;99.90;;;;;;5053705;28;20209;-72
2021/12/15 06:39:42;;;;;;;4.00;3.60;;;5.40;99.90;;;;;;5053978;28;20227;-71
2021/12/15 06:42:09;;;;;;;5.97;4.30;;;5.40;99.90;;;;;;5053257;28;20193;-70
2021/12/15 06:44:36;;;;;;;6.13;4.90;;;5.40;99.90;;;;;;5053948;28;20201;-73
2021/12/15 06:47:42;;;;;;;6.85;6.15;;;5.40;99.90;;;;;;5054104;28;20296;-72
2021/12/15 06:58:23;;;;;;;7.15;5.53;;;5.40;99.90;;;;;;5053508;28;20683;-72
2021/12/15 07:00:55;;;;;;;7.50;6.72;;;5.40;99.90;;;;;;5036341;28;20218;-72
2021/12/15 07:03:25;;;;;;;10.77;6.93;;;5.40;99.90;;;;;;5020736;28;20225;-70
2021/12/15 07:05:55;;;;;;;9.90;7.82;;;5.40;99.90;;;;;;5022244;28;20672;-72
2021/12/15 07:08:22;;;;;;;10.07;8.50;;;5.40;99.90;;;;;;5021983;28;20205;-72
2021/12/15 07:10:52;;;;;;;10.82;9.50;;;5.40;99.90;;;;;;5023699;28;20253;-72
2021/12/15 07:13:20;;;;;;;12.98;9.75;;;5.40;99.90;;;;;;5023052;28;20233;-73
2021/12/15 07:15:48;;;;;;;13.10;10.32;;;5.40;99.90;;;;;;5022387;28;20197;-71
2021/12/15 07:18:25;;;;;;;12.35;10.32;;;5.30;99.90;;;;;;5022983;28;20225;-73
2021/12/15 07:20:54;;;;;;;13.73;9.73;;;5.30;99.90;;;;;;5013055;28;20682;-73
2021/12/15 07:23:23;;;;;;;12.70;9.93;;;5.30;99.90;;;;;;5022849;28;20217;-72
2021/12/15 07:25:52;;;;;;;11.73;9.32;;;5.40;99.90;;;;;;5023625;28;20202;-72
2021/12/15 07:28:21;;;;;;;14.95;10.48;;;5.40;99.90;;;;;;5022289;28;20194;-73
2021/12/15 07:30:49;;;;;;;13.30;9.57;;;5.40;99.90;;;;;;5021151;28;20308;-73
2021/12/15 07:33:17;;;;;;;16.38;11.10;;;5.40;99.90;;;;;;5018873;28;20245;-72
2021/12/15 07:35:44;;;;;;;13.40;10.38;;;5.40;99.90;;;;;;5022342;28;20207;-72
2021/12/15 07:38:12;;;;;;;13.93;11.05;;;5.40;99.90;;;;;;5023216;28;20676;-71
2021/12/15 07:40:40;;;;;;;13.70;10.68;;;5.40;99.90;;;;;;5019934;28;20201;-72
2021/12/15 07:43:11;;;;;;;12.20;9.30;;;5.40;99.90;;;;;;5013708;28;20222;-73
2021/12/15 07:45:41;;;;;;;13.73;10.00;;;5.40;99.90;;;;;;5013093;28;20261;-72
2021/12/15 07:48:10;;;;;;;13.07;9.90;;;5.40;99.90;;;;;;5012814;28;20209;-73
2021/12/15 07:50:38;;;;;;;13.00;10.57;;;5.40;99.90;;;;;;5013062;28;20215;-72
2021/12/15 07:53:06;;;;;;;14.55;10.20;;;5.40;99.90;;;;;;5012157;28;20230;-71
2021/12/15 07:55:35;;;;;;;13.23;10.68;;;5.40;99.90;;;;;;5012872;28;20214;-72
2021/12/15 07:58:02;;;;;;;14.68;10.77;;;5.40;99.90;;;;;;5013168;28;20214;-73
2021/12/15 08:00:30;;;;;;;16.00;10.35;;;5.40;99.90;;;;;;5012663;28;20209;-72
2021/12/15 08:02:57;;;;;;;13.40;11.32;;;5.40;99.90;;;;;;5012396;28;20229;-73
2021/12/15 08:05:25;;;;;;;13.85;10.50;;;5.40;99.90;;;;;;5012501;28;20202;-72
2021/12/15 08:07:51;;;;;;;14.07;9.95;;;5.30;99.90;;;;;;5012488;28;20814;-71
2021/12/15 08:10:18;;;;;;;11.23;8.85;;;5.30;99.90;;;;;;5012309;28;20217;-72
2021/12/15 08:12:47;;;;;;;10.15;8.13;;;5.20;99.90;;;;;;5014835;28;20230;-73
2021/12/15 08:15:17;;;;;;;12.52;8.90;;;5.20;99.90;;;;;;5046798;23;20732;-94
2021/12/15 08:17:48;;;;;;;11.13;7.72;;;5.20;99.90;;;;;;5075881;28;20204;-94
2021/12/15 08:20:16;;;;;;;12.93;9.77;;;5.20;99.90;;;;;;5075775;28;20201;-93
2021/12/15 08:22:43;;;;;;;12.20;8.23;;;5.20;99.90;;;;;;5075615;28;20197;-94
2021/12/15 08:25:12;;;;;;;9.15;7.32;;;5.20;99.90;;;;;;5096638;22;20208;-70
2021/12/15 08:27:39;;;;;;;8.93;7.53;;;5.20;99.90;;;;;;5062443;28;20208;-70
2021/12/15 08:30:13;;;;;;;8.05;6.28;;;5.20;99.90;;;;;;5053841;28;20404;-70
2021/12/15 08:32:41;;;;;;;14.80;6.90;;;5.20;99.90;;;;;;5049982;28;20239;-70
2021/12/15 08:35:09;;;;;;;9.25;6.57;;;5.20;99.90;;;;;;5051254;28;20699;-70
2021/12/15 08:37:37;;;;;;;7.38;5.88;;;5.10;99.90;;;;;;5050906;28;20570;-70
2021/12/15 08:40:06;;;;;;;7.20;6.10;;;5.20;99.90;;;;;;5050963;28;20258;-70
2021/12/15 08:42:33;;;;;;;7.78;6.38;;;5.20;99.90;;;;;;5049525;28;20251;-71
2021/12/15 08:45:00;;;;;;;9.13;6.30;;;5.10;99.90;;;;;;5050242;28;20216;-70
2021/12/15 08:47:28;;;;;;;8.57;6.10;;;5.10;99.90;;;;;;5050093;28;20731;-71
2021/12/15 08:49:55;;;;;;;6.18;4.93;;;5.20;99.90;;;;;;5050466;28;20201;-71
2021/12/15 08:52:22;;;;;;;8.05;5.43;;;5.20;99.90;;;;;;5049413;28;20494;-70
2021/12/15 08:54:49;;;;;;;7.38;5.70;;;5.20;99.90;;;;;;5049997;28;20201;-70
2021/12/15 08:57:16;;;;;;;6.85;6.15;;;5.20;99.90;;;;;;5049786;28;20202;-70
2021/12/15 08:59:42;;;;;;;6.82;5.70;;;5.10;99.90;;;;;;5050316;28;20196;-70
2021/12/15 09:02:09;;;;;;;8.90;6.97;;;5.10;99.90;;;;;;5049401;28;20199;-70
2021/12/15 09:04:37;;;;;;;7.22;5.68;;;5.20;99.90;;;;;;5050356;28;20205;-70
2021/12/15 09:07:05;;;;;;;8.63;6.88;;;5.20;99.90;;;;;;5050778;28;20201;-70
2021/12/15 09:09:31;;;;;;;6.68;5.55;;;5.30;99.90;;;;;;5050241;28;20212;-69
2021/12/15 09:11:58;;;;;;;7.65;6.22;;;5.20;99.90;;;;;;5050285;28;20224;-70
2021/12/15 09:14:25;;;;;;;6.22;5.32;;;5.20;99.90;;;;;;5050067;28;20692;-70
2021/12/15 09:16:55;;;;;;;8.15;6.15;;;5.20;99.90;;;;;;5050796;28;20201;-70
2021/12/15 09:19:22;;;;;;;6.47;5.63;;;5.20;99.90;;;;;;5050764;28;20205;-70
2021/12/15 09:21:52;;;;;;;4.40;3.90;;;5.20;99.90;;;;;;5050397;28;20204;-69
2021/12/15 09:24:20;;;;;;;5.20;4.28;;;5.20;99.90;;;;;;5049919;28;20209;-70
2021/12/15 09:26:47;;;;;;;7.00;4.70;;;5.10;99.90;;;;;;5065597;28;20671;-70
2021/12/15 09:29:15;;;;;;;5.72;5.13;;;5.10;99.90;;;;;;5069828;28;20200;-70
2021/12/15 09:31:42;;;;;;;5.15;4.65;;;5.10;99.90;;;;;;5069127;28;20220;-70
2021/12/15 09:34:11;;;;;;;5.20;4.53;;;5.10;99.90;;;;;;5069641;28;20582;-70
2021/12/15 09:36:38;;;;;;;6.10;5.10;;;5.20;99.90;;;;;;5070214;28;20227;-70
2021/12/15 09:39:13;;;;;;;7.10;5.38;;;5.20;99.90;;;;;;5070063;28;20231;-70
2021/12/15 09:41:41;;;;;;;6.50;5.47;;;5.20;99.90;;;;;;5069788;28;20663;-69
2021/12/15 09:44:12;;;;;;;6.50;5.03;;;5.20;99.90;;;;;;5069787;28;20228;-70
2021/12/15 09:47:03;;;;;;;6.05;4.90;;;5.20;99.90;;;;;;5070336;28;20207;-70
2021/12/15 10:02:00;;;;;;;6.85;4.78;;;5.30;99.90;;;;;;5070662;28;20694;-70
2021/12/15 10:03:34;;;;;;;5.45;4.78;;;5.30;99.90;;;;;;5069538;28;20301;-70
2021/12/15 10:06:17;;;;;;;6.97;5.15;;;5.30;99.90;;;;;;5069742;28;20204;-68
2021/12/15 10:17:28;;;;;;;6.10;4.90;;;5.30;99.90;;;;;;5069762;28;20203;-69
2021/12/15 10:20:00;;;;;;;6.65;4.93;;;5.30;99.90;;;;;;5069824;28;20196;-69
2021/12/15 10:22:35;;;;;;;7.68;5.72;;;5.20;99.90;;;;;;5069502;28;20224;-69
2021/12/15 10:25:08;;;;;;;6.30;5.03;;;5.20;99.90;;;;;;5069659;28;20722;-69
2021/12/15 10:27:42;;;;;;;7.35;5.93;;;5.30;99.90;;;;;;5069753;28;20209;-69
2021/12/15 10:30:22;;;;;;;7.13;5.68;;;5.30;99.90;;;;;;5069849;28;20204;-68
2021/12/15 10:32:54;;;;;;;5.43;4.93;;;5.30;99.90;;;;;;5069363;28;20272;-67
2021/12/15 10:35:24;;;;;;;5.85;5.22;;;5.30;99.90;;;;;;5069720;28;20204;-68
2021/12/15 10:38:20;;;;;;;7.03;5.32;;;5.30;99.90;;;;;;5069510;28;20196;-69
2021/12/15 10:41:07;;;;;;;6.28;4.97;;;5.30;99.90;;;;;;5069584;28;20215;-68
2021/12/15 10:43:38;;;;;;;5.53;4.95;;;5.20;99.90;;;;;;5069494;28;20281;-68
2021/12/15 10:46:08;;;;;;;6.03;5.22;;;5.20;99.90;;;;;;5069185;28;20285;-69
2021/12/15 10:48:45;;;;;;;6.20;5.07;;;5.20;99.90;;;;;;5069023;28;20200;-69
2021/12/15 10:51:36;;;;;;;7.47;5.93;;;5.30;99.90;;;;;;5068512;28;20811;-68
2021/12/15 10:54:06;;;;;;;6.68;4.75;;;5.30;99.90;;;;;;5068458;28;20224;-69
2021/12/15 10:56:35;;;;;;;8.43;5.93;;;5.30;99.90;;;;;;5069040;28;20624;-69
2021/12/15 10:59:07;;;;;;;6.65;5.00;;;5.30;99.90;;;;;;5068993;28;20200;-70
2021/12/15 11:01:47;;;;;;;7.63;5.47;;;5.30;99.90;;;;;;5068422;28;20197;-71
2021/12/15 11:04:40;;;;;;;8.10;5.65;;;5.30;99.90;;;;;;5068694;28;20221;-69
2021/12/15 11:07:14;;;;;;;7.15;6.28;;;5.30;99.90;;;;;;5070629;28;20668;-70
2021/12/15 11:09:45;;;;;;;8.43;5.20;;;5.30;99.90;;;;;;5072805;28;20335;-70
2021/12/15 11:12:16;;;;;;;6.72;5.43;;;5.30;99.90;;;;;;5074839;28;20232;-70
2021/12/15 11:14:46;;;;;;;7.57;6.00;;;5.20;99.90;;;;;;5074490;28;20227;-69
2021/12/15 11:17:16;;;;;;;8.27;6.35;;;5.30;99.90;;;;;;5083524;28;20228;-69
2021/12/15 11:19:52;;;;;;;5.90;4.97;;;5.30;99.90;;;;;;5075094;28;20232;-69
2021/12/15 11:22:41;;;;;;;8.02;6.05;;;5.30;99.90;;;;;;5072050;28;20710;-69
2021/12/15 11:25:12;;;;;;;6.55;5.38;;;5.10;99.90;;;;;;5071888;28;20205;-69
2021/12/15 11:27:40;;;;;;;6.72;5.15;;;5.10;99.90;;;;;;5072417;28;20682;-70
2021/12/15 11:30:12;;;;;;;8.30;6.38;;;5.20;99.90;;;;;;5071675;28;20200;-68
2021/12/15 11:32:46;;;;;;;8.07;6.50;;;5.00;99.90;;;;;;5071674;28;20220;-69
2021/12/15 11:35:18;;;;;;;9.10;6.50;;;5.00;99.90;;;;;;5072040;28;20207;-69
2021/12/15 11:37:53;;;;;;;10.00;7.22;;;5.00;99.90;;;;;;5072030;28;20204;-69
2021/12/15 11:40:35;;;;;;;7.93;6.00;;;5.10;99.90;;;;;;5072447;28;20226;-70
2021/12/15 11:43:03;;;;;;;7.35;5.75;;;5.10;99.90;;;;;;5071586;28;20220;-69
2021/12/15 11:45:32;;;;;;;8.75;6.60;;;5.10;99.90;;;;;;5055476;28;20205;-69
2021/12/15 11:48:18;;;;;;;7.28;6.53;;;5.10;99.90;;;;;;5051764;28;20212;-70
2021/12/15 11:50:46;;;;;;;9.27;6.88;;;5.10;99.90;;;;;;5052100;28;20554;-70
2021/12/15 11:53:22;;;;;;;8.25;6.50;;;5.10;99.90;;;;;;5050486;28;20236;-70
2021/12/15 11:55:49;;;;;;;7.22;6.25;;;5.10;99.90;;;;;;5051977;28;20211;-69
2021/12/15 11:58:16;;;;;;;6.20;5.60;;;5.10;99.90;;;;;;5051546;28;20216;-68
2021/12/15 12:00:44;;;;;;;9.35;6.35;;;5.20;99.90;;;;;;5051337;28;20201;-69
2021/12/15 12:03:14;;;;;;;8.60;6.03;;;5.20;99.90;;;;;;5051883;28;20231;-70
2021/12/15 12:05:41;;;;;;;8.85;6.80;;;5.20;99.90;;;;;;5051667;28;20552;-70
2021/12/15 12:08:13;;;;;;;12.80;6.82;;;5.30;99.90;;;;;;5051190;28;20233;-69
2021/12/15 12:10:45;;;;;;;9.32;6.47;;;5.30;99.90;;;;;;5051398;28;20255;-67
2021/12/15 12:13:20;;;;;;;7.20;5.70;;;5.30;99.90;;;;;;5050787;28;20222;-69
2021/12/15 12:15:55;;;;;;;8.27;6.90;;;5.40;99.90;;;;;;5051231;28;20231;-70
2021/12/15 12:18:24;;;;;;;7.95;6.20;;;5.40;99.90;;;;;;5050733;28;20287;-68
2021/12/15 12:20:54;;;;;;;9.15;7.85;;;5.30;99.90;;;;;;5050905;28;20201;-69
2021/12/15 12:23:24;;;;;;;9.07;7.50;;;5.30;99.90;;;;;;5050197;28;20220;-69
2021/12/15 12:25:53;;;;;;;8.50;6.90;;;5.30;99.90;;;;;;5051337;28;20209;-68
2021/12/15 12:28:22;;;;;;;9.35;6.97;;;5.20;99.90;;;;;;5050868;28;20668;-70
2021/12/15 12:30:54;;;;;;;8.52;6.93;;;5.20;99.90;;;;;;5050442;28;20694;-70
2021/12/15 12:33:23;;;;;;;10.07;7.55;;;5.20;99.90;;;;;;5050310;28;20715;-70
2021/12/15 12:35:54;;;;;;;8.85;7.18;;;5.10;99.90;;;;;;5050795;28;20276;-69
2021/12/15 12:38:23;;;;;;;11.52;7.80;;;5.10;99.90;;;;;;5050200;28;20682;-69
2021/12/15 12:40:54;;;;;;;9.77;7.28;;;5.10;99.90;;;;;;5050457;28;20715;-69
2021/12/15 12:43:24;;;;;;;9.57;7.50;;;5.10;99.90;;;;;;5050270;28;20783;-69
2021/12/15 12:46:08;;;;;;;9.85;7.60;;;5.10;99.90;;;;;;5050811;28;20578;-70
2021/12/15 12:48:48;;;;;;;7.18;6.40;;;5.10;99.90;;;;;;5050709;28;20200;-69
2021/12/15 12:59:40;;;;;;;8.18;6.88;;;5.20;99.90;;;;;;5049626;28;20204;-70
2021/12/15 13:02:39;;;;;;;10.05;7.50;;;5.30;99.90;;;;;;5049713;28;20193;-68
2021/12/15 13:05:25;;;;;;;7.40;6.70;;;5.20;99.90;;;;;;5048808;28;20197;-71
2021/12/15 13:07:55;;;;;;;8.13;6.80;;;5.10;99.90;;;;;;5049371;28;20205;-69
2021/12/15 13:10:43;;;;;;;7.65;6.50;;;5.00;99.90;;;;;;5054696;28;20193;-68
2021/12/15 13:13:14;;;;;;;8.38;6.75;;;5.00;99.90;;;;;;5049095;28;20711;-69
2021/12/15 13:15:41;;;;;;;8.05;6.95;;;5.00;99.90;;;;;;5047884;28;20214;-69
2021/12/15 13:18:12;;;;;;;10.57;7.38;;;5.00;99.90;;;;;;5050344;28;20231;-69
2021/12/15 13:20:40;;;;;;;8.40;7.50;;;5.00;99.90;;;;;;5047902;28;20204;-70
2021/12/15 13:23:27;;;;;;;9.07;7.07;;;4.90;99.90;;;;;;5050012;28;20641;-71
2021/12/15 13:28:45;;;;;;;9.00;7.30;;;4.80;99.90;;;;;;5047792;28;20399;-71
2021/12/15 13:31:15;;;;;;;8.90;7.93;;;4.90;99.90;;;;;;5046931;28;20193;-71
2021/12/15 13:33:48;;;;;;;8.45;7.05;;;4.90;99.90;;;;;;5049441;28;20213;-71
2021/12/15 13:36:17;;;;;;;8.30;6.72;;;4.90;99.90;;;;;;5047433;28;20201;-70
2021/12/15 13:38:47;;;;;;;7.47;6.57;;;4.90;99.90;;;;;;5049699;28;20221;-71
2021/12/15 13:41:24;;;;;;;7.93;7.13;;;4.90;99.90;;;;;;5048454;28;20695;-71
2021/12/15 13:44:07;;;;;;;8.02;6.63;;;5.00;99.90;;;;;;5046147;28;20212;-71
2021/12/15 13:46:38;;;;;;;8.63;7.57;;;4.90;99.90;;;;;;5048673;28;20205;-71
2021/12/15 13:49:28;;;;;;;11.07;7.15;;;5.00;99.90;;;;;;5048968;28;20197;-71
2021/12/15 13:52:32;;;;;;;8.38;6.75;;;5.00;99.90;;;;;;5028508;28;20197;-71
2021/12/15 13:55:21;;;;;;;6.97;5.70;;;5.00;99.90;;;;;;5025008;28;20258;-71
2021/12/15 13:58:17;;;;;;;7.95;7.13;;;4.90;99.90;;;;;;5048720;28;20197;-71
2021/12/15 14:00:48;;;;;;;8.38;6.93;;;4.80;99.90;;;;;;5048621;28;20197;-71
2021/12/15 14:03:20;;;;;;;8.18;6.82;;;4.80;99.90;;;;;;5048345;28;20213;-71
2021/12/15 14:05:52;;;;;;;8.88;7.30;;;4.80;99.90;;;;;;5048624;28;20193;-71
2021/12/15 14:08:21;;;;;;;8.20;7.20;;;4.70;99.90;;;;;;5048373;28;20206;-70
2021/12/15 14:10:54;;;;;;;7.93;7.00;;;4.80;99.90;;;;;;5048741;28;20204;-71